sensor_id;sensor_type;location;lat;lon;timestamp;temperature;humidity
32522;DHT22;18963;51.504;5.316;2022-12-18T00:00:28;-6.10;99.90
32522;DHT22;18963;51.504;5.316;2022-12-18T00:02:53;-6.10;99.90
32522;DHT22;18963;51.504;5.316;2022-12-18T00:05:19;-6.10;99.90
32522;DHT22;18963;51.504;5.316;2022-12-18T00:07:44;-6.10;99.90
32522;DHT22;18963;51.504;5.316;2022-12-18T00:10:09;-6.00;99.90
32522;DHT22;18963;51.504;5.316;2022-12-18T00:12:35;-6.10;99.90
32522;DHT22;18963;51.504;5.316;2022-12-18T00:15:01;-6.10;99.90
32522;DHT22;18963;51.504;5.316;2022-12-18T00:17:26;-6.10;99.90
32522;DHT22;18963;51.504;5.316;2022-12-18T00:19:52;-6.10;99.90
32522;DHT22;18963;51.504;5.316;2022-12-18T00:22:17;-6.00;99.90
32522;DHT22;18963;51.504;5.316;2022-12-18T00:24:42;-5.90;99.90
32522;DHT22;18963;51.504;5.316;2022-12-18T00:27:08;-6.00;99.90
32522;DHT22;18963;51.504;5.316;2022-12-18T00:29:33;-5.90;99.90
32522;DHT22;18963;51.504;5.316;2022-12-18T00:31:59;-5.90;99.90
32522;DHT22;18963;51.504;5.316;2022-12-18T00:34:24;-5.90;99.90
32522;DHT22;18963;51.504;5.316;2022-12-18T00:36:50;-5.90;99.90
32522;DHT22;18963;51.504;5.316;2022-12-18T00:39:15;-5.80;99.90
32522;DHT22;18963;51.504;5.316;2022-12-18T00:41:41;-5.80;99.90
32522;DHT22;18963;51.504;5.316;2022-12-18T00:44:25;-5.80;99.90
32522;DHT22;18963;51.504;5.316;2022-12-18T00:46:50;-5.80;99.90
32522;DHT22;18963;51.504;5.316;2022-12-18T00:49:17;-5.80;99.90
32522;DHT22;18963;51.504;5.316;2022-12-18T00:51:43;-5.90;99.90
32522;DHT22;18963;51.504;5.316;2022-12-18T00:54:08;-5.90;99.90
32522;DHT22;18963;51.504;5.316;2022-12-18T00:56:37;-5.90;99.90
32522;DHT22;18963;51.504;5.316;2022-12-18T00:59:03;-6.00;99.90
32522;DHT22;18963;51.504;5.316;2022-12-18T01:01:29;-6.00;99.90
32522;DHT22;18963;51.504;5.316;2022-12-18T01:03:54;-6.00;99.90
32522;DHT22;18963;51.504;5.316;2022-12-18T01:06:20;-6.00;99.90
32522;DHT22;18963;51.504;5.316;2022-12-18T01:08:45;-5.90;99.90
32522;DHT22;18963;51.504;5.316;2022-12-18T01:11:12;-6.00;99.90
32522;DHT22;18963;51.504;5.316;2022-12-18T01:13:38;-6.00;99.90
32522;DHT22;18963;51.504;5.316;2022-12-18T01:16:04;-6.00;99.90
32522;DHT22;18963;51.504;5.316;2022-12-18T01:18:29;-6.00;99.90
32522;DHT22;18963;51.504;5.316;2022-12-18T01:20:55;-6.00;99.90
32522;DHT22;18963;51.504;5.316;2022-12-18T01:23:20;-6.00;99.90
32522;DHT22;18963;51.504;5.316;2022-12-18T01:25:46;-6.00;99.90
32522;DHT22;18963;51.504;5.316;2022-12-18T01:28:12;-6.00;99.90
32522;DHT22;18963;51.504;5.316;2022-12-18T01:30:37;-6.00;99.90
32522;DHT22;18963;51.504;5.316;2022-12-18T01:33:04;-6.10;99.90
32522;DHT22;18963;51.504;5.316;2022-12-18T01:35:29;-6.10;99.90
32522;DHT22;18963;51.504;5.316;2022-12-18T01:37:55;-6.10;99.90
32522;DHT22;18963;51.504;5.316;2022-12-18T01:40:20;-6.20;99.90
32522;DHT22;18963;51.504;5.316;2022-12-18T01:42:50;-6.10;99.90
32522;DHT22;18963;51.504;5.316;2022-12-18T01:47:51;-6.10;99.90
32522;DHT22;18963;51.504;5.316;2022-12-18T01:50:22;-6.20;99.90
32522;DHT22;18963;51.504;5.316;2022-12-18T01:52:50;-6.10;99.90
32522;DHT22;18963;51.504;5.316;2022-12-18T01:55:17;-6.10;99.90
32522;DHT22;18963;51.504;5.316;2022-12-18T01:57:43;-6.10;99.90
32522;DHT22;18963;51.504;5.316;2022-12-18T02:00:28;-6.10;99.90
32522;DHT22;18963;51.504;5.316;2022-12-18T02:02:54;-6.10;99.90
32522;DHT22;18963;51.504;5.316;2022-12-18T02:05:25;-6.10;99.90
32522;DHT22;18963;51.504;5.316;2022-12-18T02:08:11;-6.20;99.90
32522;DHT22;18963;51.504;5.316;2022-12-18T02:10:41;-6.20;99.90
32522;DHT22;18963;51.504;5.316;2022-12-18T02:15:51;-6.20;99.90
32522;DHT22;18963;51.504;5.316;2022-12-18T02:18:24;-6.20;99.90
32522;DHT22;18963;51.504;5.316;2022-12-18T02:31:23;-6.10;99.90
32522;DHT22;18963;51.504;5.316;2022-12-18T02:33:50;-6.10;99.90
32522;DHT22;18963;51.504;5.316;2022-12-18T02:36:17;-6.20;99.90
32522;DHT22;18963;51.504;5.316;2022-12-18T02:38:43;-6.10;99.90
32522;DHT22;18963;51.504;5.316;2022-12-18T02:41:10;-6.10;99.90
32522;DHT22;18963;51.504;5.316;2022-12-18T02:43:35;-6.10;99.90
32522;DHT22;18963;51.504;5.316;2022-12-18T02:46:01;-6.20;99.90
32522;DHT22;18963;51.504;5.316;2022-12-18T02:48:46;-6.10;99.90
32522;DHT22;18963;51.504;5.316;2022-12-18T02:51:18;-6.20;99.90
32522;DHT22;18963;51.504;5.316;2022-12-18T02:53:50;-6.20;99.90
32522;DHT22;18963;51.504;5.316;2022-12-18T02:56:18;-6.20;99.90
32522;DHT22;18963;51.504;5.316;2022-12-18T02:58:58;-6.20;99.90
32522;DHT22;18963;51.504;5.316;2022-12-18T03:04:01;-6.20;99.90
32522;DHT22;18963;51.504;5.316;2022-12-18T03:06:29;-6.20;99.90
32522;DHT22;18963;51.504;5.316;2022-12-18T03:08:59;-6.20;99.90
32522;DHT22;18963;51.504;5.316;2022-12-18T03:11:26;-6.20;99.90
32522;DHT22;18963;51.504;5.316;2022-12-18T03:14:12;-6.20;99.90
32522;DHT22;18963;51.504;5.316;2022-12-18T03:16:38;-6.20;99.90
32522;DHT22;18963;51.504;5.316;2022-12-18T03:19:09;-6.20;99.90
32522;DHT22;18963;51.504;5.316;2022-12-18T03:21:38;-6.20;99.90
32522;DHT22;18963;51.504;5.316;2022-12-18T03:24:06;-6.20;99.90
32522;DHT22;18963;51.504;5.316;2022-12-18T03:26:32;-6.30;99.90
32522;DHT22;18963;51.504;5.316;2022-12-18T03:29:03;-6.30;99.90
32522;DHT22;18963;51.504;5.316;2022-12-18T03:31:30;-6.40;99.90
32522;DHT22;18963;51.504;5.316;2022-12-18T03:34:00;-6.40;99.90
32522;DHT22;18963;51.504;5.316;2022-12-18T03:36:26;-6.50;99.90
32522;DHT22;18963;51.504;5.316;2022-12-18T03:38:52;-6.50;99.90
32522;DHT22;18963;51.504;5.316;2022-12-18T03:41:42;-6.60;99.90
32522;DHT22;18963;51.504;5.316;2022-12-18T03:44:09;-6.60;99.90
32522;DHT22;18963;51.504;5.316;2022-12-18T03:46:47;-6.70;99.90
32522;DHT22;18963;51.504;5.316;2022-12-18T03:49:49;-6.70;99.90
32522;DHT22;18963;51.504;5.316;2022-12-18T03:52:18;-6.70;99.90
32522;DHT22;18963;51.504;5.316;2022-12-18T03:54:45;-6.80;99.90
32522;DHT22;18963;51.504;5.316;2022-12-18T03:57:13;-6.80;99.90
32522;DHT22;18963;51.504;5.316;2022-12-18T03:59:39;-6.80;99.90
32522;DHT22;18963;51.504;5.316;2022-12-18T04:02:06;-6.80;99.90
32522;DHT22;18963;51.504;5.316;2022-12-18T04:04:33;-6.80;99.90
32522;DHT22;18963;51.504;5.316;2022-12-18T04:06:59;-6.90;99.90
32522;DHT22;18963;51.504;5.316;2022-12-18T04:09:25;-6.90;99.90
32522;DHT22;18963;51.504;5.316;2022-12-18T04:11:51;-6.90;99.90
32522;DHT22;18963;51.504;5.316;2022-12-18T04:14:17;-6.90;99.90
32522;DHT22;18963;51.504;5.316;2022-12-18T04:16:42;-6.90;99.90
32522;DHT22;18963;51.504;5.316;2022-12-18T04:19:07;-6.90;99.90
32522;DHT22;18963;51.504;5.316;2022-12-18T04:21:33;-6.90;99.90
32522;DHT22;18963;51.504;5.316;2022-12-18T04:23:58;-6.90;99.90
32522;DHT22;18963;51.504;5.316;2022-12-18T04:26:24;-6.80;99.90
32522;DHT22;18963;51.504;5.316;2022-12-18T04:28:49;-6.80;99.90
32522;DHT22;18963;51.504;5.316;2022-12-18T04:31:15;-6.90;99.90
32522;DHT22;18963;51.504;5.316;2022-12-18T04:33:40;-6.80;99.90
32522;DHT22;18963;51.504;5.316;2022-12-18T04:36:06;-6.90;99.90
32522;DHT22;18963;51.504;5.316;2022-12-18T04:38:32;-6.90;99.90
32522;DHT22;18963;51.504;5.316;2022-12-18T04:40:57;-6.90;99.90
32522;DHT22;18963;51.504;5.316;2022-12-18T04:43:23;-7.00;99.90
32522;DHT22;18963;51.504;5.316;2022-12-18T04:45:48;-7.00;99.90
32522;DHT22;18963;51.504;5.316;2022-12-18T04:48:14;-7.10;99.90
32522;DHT22;18963;51.504;5.316;2022-12-18T04:50:39;-7.10;99.90
32522;DHT22;18963;51.504;5.316;2022-12-18T04:53:05;-7.20;99.90
32522;DHT22;18963;51.504;5.316;2022-12-18T04:55:30;-7.20;99.90
32522;DHT22;18963;51.504;5.316;2022-12-18T04:57:56;-7.20;99.90
32522;DHT22;18963;51.504;5.316;2022-12-18T05:00:21;-7.20;99.90
32522;DHT22;18963;51.504;5.316;2022-12-18T05:02:47;-7.20;99.90
32522;DHT22;18963;51.504;5.316;2022-12-18T05:05:12;-7.20;99.90
32522;DHT22;18963;51.504;5.316;2022-12-18T05:07:38;-7.20;99.90
32522;DHT22;18963;51.504;5.316;2022-12-18T05:10:03;-7.20;99.90
32522;DHT22;18963;51.504;5.316;2022-12-18T05:12:30;-7.30;99.90
32522;DHT22;18963;51.504;5.316;2022-12-18T05:14:56;-7.30;99.90
32522;DHT22;18963;51.504;5.316;2022-12-18T05:17:21;-7.40;99.90
32522;DHT22;18963;51.504;5.316;2022-12-18T05:19:47;-7.40;99.90
32522;DHT22;18963;51.504;5.316;2022-12-18T05:22:12;-7.30;99.90
32522;DHT22;18963;51.504;5.316;2022-12-18T05:24:38;-7.30;99.90
32522;DHT22;18963;51.504;5.316;2022-12-18T05:27:03;-7.30;99.90
32522;DHT22;18963;51.504;5.316;2022-12-18T05:29:29;-7.30;99.90
32522;DHT22;18963;51.504;5.316;2022-12-18T05:31:54;-7.30;99.90
32522;DHT22;18963;51.504;5.316;2022-12-18T05:34:20;-7.30;99.90
32522;DHT22;18963;51.504;5.316;2022-12-18T05:36:45;-7.20;99.90
32522;DHT22;18963;51.504;5.316;2022-12-18T05:39:11;-7.20;99.90
32522;DHT22;18963;51.504;5.316;2022-12-18T05:41:36;-7.20;99.90
32522;DHT22;18963;51.504;5.316;2022-12-18T05:44:02;-7.20;99.90
32522;DHT22;18963;51.504;5.316;2022-12-18T05:46:27;-7.20;99.90
32522;DHT22;18963;51.504;5.316;2022-12-18T05:48:53;-7.20;99.90
32522;DHT22;18963;51.504;5.316;2022-12-18T05:51:19;-7.30;99.90
32522;DHT22;18963;51.504;5.316;2022-12-18T05:53:45;-7.30;99.90
32522;DHT22;18963;51.504;5.316;2022-12-18T05:56:13;-7.30;99.90
32522;DHT22;18963;51.504;5.316;2022-12-18T05:58:40;-7.30;99.90
32522;DHT22;18963;51.504;5.316;2022-12-18T06:01:06;-7.30;99.90
32522;DHT22;18963;51.504;5.316;2022-12-18T06:03:32;-7.40;99.90
32522;DHT22;18963;51.504;5.316;2022-12-18T06:05:58;-7.40;99.90
32522;DHT22;18963;51.504;5.316;2022-12-18T06:08:23;-7.40;99.90
32522;DHT22;18963;51.504;5.316;2022-12-18T06:10:49;-7.40;99.90
32522;DHT22;18963;51.504;5.316;2022-12-18T06:13:16;-7.40;99.90
32522;DHT22;18963;51.504;5.316;2022-12-18T06:15:41;-7.50;99.90
32522;DHT22;18963;51.504;5.316;2022-12-18T06:18:07;-7.50;99.90
32522;DHT22;18963;51.504;5.316;2022-12-18T06:20:32;-7.60;99.90
32522;DHT22;18963;51.504;5.316;2022-12-18T06:22:58;-7.70;99.90
32522;DHT22;18963;51.504;5.316;2022-12-18T06:25:23;-7.70;99.90
32522;DHT22;18963;51.504;5.316;2022-12-18T06:27:49;-7.80;99.90
32522;DHT22;18963;51.504;5.316;2022-12-18T06:30:14;-7.80;99.90
32522;DHT22;18963;51.504;5.316;2022-12-18T06:32:40;-7.80;99.90
32522;DHT22;18963;51.504;5.316;2022-12-18T06:35:06;-7.80;99.90
32522;DHT22;18963;51.504;5.316;2022-12-18T06:37:31;-7.80;99.90
32522;DHT22;18963;51.504;5.316;2022-12-18T06:39:57;-7.80;99.90
32522;DHT22;18963;51.504;5.316;2022-12-18T06:42:23;-7.70;99.90
32522;DHT22;18963;51.504;5.316;2022-12-18T06:44:48;-7.70;99.90
32522;DHT22;18963;51.504;5.316;2022-12-18T06:47:14;-7.70;99.90
32522;DHT22;18963;51.504;5.316;2022-12-18T06:49:39;-7.80;99.90
32522;DHT22;18963;51.504;5.316;2022-12-18T06:52:05;-7.80;99.90
32522;DHT22;18963;51.504;5.316;2022-12-18T06:54:30;-7.80;99.90
32522;DHT22;18963;51.504;5.316;2022-12-18T06:56:56;-7.80;99.90
32522;DHT22;18963;51.504;5.316;2022-12-18T06:59:21;-7.80;99.90
32522;DHT22;18963;51.504;5.316;2022-12-18T07:01:47;-7.80;99.90
32522;DHT22;18963;51.504;5.316;2022-12-18T07:04:12;-7.70;99.90
32522;DHT22;18963;51.504;5.316;2022-12-18T07:06:38;-7.70;99.90
32522;DHT22;18963;51.504;5.316;2022-12-18T07:09:03;-7.50;99.90
32522;DHT22;18963;51.504;5.316;2022-12-18T07:11:29;-7.50;99.90
32522;DHT22;18963;51.504;5.316;2022-12-18T07:13:54;-7.40;99.90
32522;DHT22;18963;51.504;5.316;2022-12-18T07:16:20;-7.20;99.90
32522;DHT22;18963;51.504;5.316;2022-12-18T07:18:46;-7.10;99.90
32522;DHT22;18963;51.504;5.316;2022-12-18T07:21:13;-7.00;99.90
32522;DHT22;18963;51.504;5.316;2022-12-18T07:23:38;-6.90;99.90
32522;DHT22;18963;51.504;5.316;2022-12-18T07:26:05;-6.80;99.90
32522;DHT22;18963;51.504;5.316;2022-12-18T07:28:32;-6.70;99.90
32522;DHT22;18963;51.504;5.316;2022-12-18T07:30:58;-6.60;99.90
32522;DHT22;18963;51.504;5.316;2022-12-18T07:33:24;-6.60;99.90
32522;DHT22;18963;51.504;5.316;2022-12-18T07:35:49;-6.50;99.90
32522;DHT22;18963;51.504;5.316;2022-12-18T07:38:15;-6.50;99.90
32522;DHT22;18963;51.504;5.316;2022-12-18T07:40:40;-6.40;99.90
32522;DHT22;18963;51.504;5.316;2022-12-18T07:43:06;-6.40;99.90
32522;DHT22;18963;51.504;5.316;2022-12-18T07:45:31;-6.40;99.90
32522;DHT22;18963;51.504;5.316;2022-12-18T07:47:57;-6.30;99.90
32522;DHT22;18963;51.504;5.316;2022-12-18T07:50:22;-6.20;99.90
32522;DHT22;18963;51.504;5.316;2022-12-18T07:52:49;-6.20;99.90
32522;DHT22;18963;51.504;5.316;2022-12-18T07:55:14;-6.20;99.90
32522;DHT22;18963;51.504;5.316;2022-12-18T07:57:40;-6.20;99.90
32522;DHT22;18963;51.504;5.316;2022-12-18T08:00:06;-6.10;99.90
32522;DHT22;18963;51.504;5.316;2022-12-18T08:02:32;-6.00;99.90
32522;DHT22;18963;51.504;5.316;2022-12-18T08:04:57;-5.90;99.90
32522;DHT22;18963;51.504;5.316;2022-12-18T08:07:23;-5.80;99.90
32522;DHT22;18963;51.504;5.316;2022-12-18T08:09:49;-5.80;99.90
32522;DHT22;18963;51.504;5.316;2022-12-18T08:12:14;-5.70;99.90
32522;DHT22;18963;51.504;5.316;2022-12-18T08:14:40;-5.70;99.90
32522;DHT22;18963;51.504;5.316;2022-12-18T08:17:05;-5.60;99.90
32522;DHT22;18963;51.504;5.316;2022-12-18T08:19:31;-5.50;99.90
32522;DHT22;18963;51.504;5.316;2022-12-18T08:21:56;-5.50;99.90
32522;DHT22;18963;51.504;5.316;2022-12-18T08:24:22;-5.50;99.90
32522;DHT22;18963;51.504;5.316;2022-12-18T08:26:47;-5.50;99.90
32522;DHT22;18963;51.504;5.316;2022-12-18T08:29:13;-5.40;99.90
32522;DHT22;18963;51.504;5.316;2022-12-18T08:31:38;-5.40;99.90
32522;DHT22;18963;51.504;5.316;2022-12-18T08:34:04;-5.30;99.90
32522;DHT22;18963;51.504;5.316;2022-12-18T08:36:29;-5.30;99.90
32522;DHT22;18963;51.504;5.316;2022-12-18T08:38:55;-5.20;99.90
32522;DHT22;18963;51.504;5.316;2022-12-18T08:41:21;-5.20;99.90
32522;DHT22;18963;51.504;5.316;2022-12-18T08:43:46;-5.10;99.90
32522;DHT22;18963;51.504;5.316;2022-12-18T08:46:41;-5.10;99.90
32522;DHT22;18963;51.504;5.316;2022-12-18T08:49:07;-5.10;99.90
32522;DHT22;18963;51.504;5.316;2022-12-18T08:51:33;-5.00;99.90
32522;DHT22;18963;51.504;5.316;2022-12-18T08:53:59;-5.00;99.90
32522;DHT22;18963;51.504;5.316;2022-12-18T08:56:24;-4.90;99.90
32522;DHT22;18963;51.504;5.316;2022-12-18T08:58:53;-4.80;99.90
32522;DHT22;18963;51.504;5.316;2022-12-18T09:01:19;-4.80;99.90
32522;DHT22;18963;51.504;5.316;2022-12-18T09:03:46;-4.70;99.90
32522;DHT22;18963;51.504;5.316;2022-12-18T09:06:15;-4.70;99.90
32522;DHT22;18963;51.504;5.316;2022-12-18T09:08:42;-4.60;99.90
32522;DHT22;18963;51.504;5.316;2022-12-18T09:11:24;-4.60;99.90
32522;DHT22;18963;51.504;5.316;2022-12-18T09:13:50;-4.50;99.90
32522;DHT22;18963;51.504;5.316;2022-12-18T09:16:16;-4.50;99.90
32522;DHT22;18963;51.504;5.316;2022-12-18T09:18:41;-4.40;99.90
32522;DHT22;18963;51.504;5.316;2022-12-18T09:21:08;-4.30;99.90
32522;DHT22;18963;51.504;5.316;2022-12-18T09:23:34;-4.30;99.90
32522;DHT22;18963;51.504;5.316;2022-12-18T09:25:59;-4.30;99.90
32522;DHT22;18963;51.504;5.316;2022-12-18T09:28:25;-4.20;99.90
32522;DHT22;18963;51.504;5.316;2022-12-18T09:30:51;-4.20;99.90
32522;DHT22;18963;51.504;5.316;2022-12-18T09:33:17;-4.10;99.90
32522;DHT22;18963;51.504;5.316;2022-12-18T09:35:43;-4.10;99.90
32522;DHT22;18963;51.504;5.316;2022-12-18T09:38:13;-4.10;99.90
32522;DHT22;18963;51.504;5.316;2022-12-18T09:40:46;-4.00;99.90
32522;DHT22;18963;51.504;5.316;2022-12-18T09:43:57;-3.90;99.90
32522;DHT22;18963;51.504;5.316;2022-12-18T09:46:03;-3.90;99.90
32522;DHT22;18963;51.504;5.316;2022-12-18T09:48:35;-3.80;99.90
32522;DHT22;18963;51.504;5.316;2022-12-18T09:53:53;-3.70;99.90
32522;DHT22;18963;51.504;5.316;2022-12-18T09:56:19;-3.60;99.90
32522;DHT22;18963;51.504;5.316;2022-12-18T10:01:23;-3.50;99.90
32522;DHT22;18963;51.504;5.316;2022-12-18T10:03:49;-3.40;99.90
32522;DHT22;18963;51.504;5.316;2022-12-18T10:06:16;-3.30;99.90
32522;DHT22;18963;51.504;5.316;2022-12-18T10:08:49;-3.20;99.90
32522;DHT22;18963;51.504;5.316;2022-12-18T10:11:34;-3.10;99.90
32522;DHT22;18963;51.504;5.316;2022-12-18T10:16:34;-3.00;99.90
32522;DHT22;18963;51.504;5.316;2022-12-18T10:19:07;-2.90;99.90
32522;DHT22;18963;51.504;5.316;2022-12-18T10:21:38;-2.90;99.90
32522;DHT22;18963;51.504;5.316;2022-12-18T10:24:13;-2.80;99.90
32522;DHT22;18963;51.504;5.316;2022-12-18T10:26:41;-2.70;99.90
32522;DHT22;18963;51.504;5.316;2022-12-18T10:29:11;-2.70;99.90
32522;DHT22;18963;51.504;5.316;2022-12-18T10:31:37;-2.60;99.90
32522;DHT22;18963;51.504;5.316;2022-12-18T10:34:02;-2.60;99.90
32522;DHT22;18963;51.504;5.316;2022-12-18T10:36:28;-2.50;99.90
32522;DHT22;18963;51.504;5.316;2022-12-18T10:38:54;-2.50;99.90
32522;DHT22;18963;51.504;5.316;2022-12-18T10:41:26;-2.40;99.90
32522;DHT22;18963;51.504;5.316;2022-12-18T10:44:34;-2.40;99.90
32522;DHT22;18963;51.504;5.316;2022-12-18T10:46:40;-2.40;99.90
32522;DHT22;18963;51.504;5.316;2022-12-18T10:49:07;-2.40;99.90
32522;DHT22;18963;51.504;5.316;2022-12-18T10:51:43;-2.30;99.90
32522;DHT22;18963;51.504;5.316;2022-12-18T10:54:16;-2.30;99.90
32522;DHT22;18963;51.504;5.316;2022-12-18T10:56:42;-2.20;99.90
32522;DHT22;18963;51.504;5.316;2022-12-18T10:59:09;-2.20;99.90
32522;DHT22;18963;51.504;5.316;2022-12-18T11:07:18;-2.10;99.90
32522;DHT22;18963;51.504;5.316;2022-12-18T11:09:40;-2.00;99.90
32522;DHT22;18963;51.504;5.316;2022-12-18T11:12:14;-2.00;99.90
32522;DHT22;18963;51.504;5.316;2022-12-18T11:14:45;-2.00;99.90
32522;DHT22;18963;51.504;5.316;2022-12-18T11:17:21;-1.90;99.90
32522;DHT22;18963;51.504;5.316;2022-12-18T11:19:55;-1.90;99.90
32522;DHT22;18963;51.504;5.316;2022-12-18T11:22:23;-1.90;99.90
32522;DHT22;18963;51.504;5.316;2022-12-18T11:27:20;-1.80;99.90
32522;DHT22;18963;51.504;5.316;2022-12-18T11:29:46;-1.70;99.90
32522;DHT22;18963;51.504;5.316;2022-12-18T11:34:41;-1.70;99.90
32522;DHT22;18963;51.504;5.316;2022-12-18T11:37:08;-1.60;99.90
32522;DHT22;18963;51.504;5.316;2022-12-18T11:39:38;-1.60;99.90
32522;DHT22;18963;51.504;5.316;2022-12-18T11:42:10;-1.60;99.90
32522;DHT22;18963;51.504;5.316;2022-12-18T11:47:12;-1.50;99.90
32522;DHT22;18963;51.504;5.316;2022-12-18T11:49:38;-1.50;99.90
32522;DHT22;18963;51.504;5.316;2022-12-18T11:52:10;-1.50;99.90
32522;DHT22;18963;51.504;5.316;2022-12-18T11:54:39;-1.40;99.90
32522;DHT22;18963;51.504;5.316;2022-12-18T11:57:18;-1.40;99.90
32522;DHT22;18963;51.504;5.316;2022-12-18T12:10:04;-1.20;99.90
32522;DHT22;18963;51.504;5.316;2022-12-18T12:17:54;-1.10;99.90
32522;DHT22;18963;51.504;5.316;2022-12-18T12:22:54;-1.10;99.90
32522;DHT22;18963;51.504;5.316;2022-12-18T12:25:35;-1.10;99.90
32522;DHT22;18963;51.504;5.316;2022-12-18T12:38:46;-1.00;99.90
32522;DHT22;18963;51.504;5.316;2022-12-18T12:41:12;-0.90;99.90
32522;DHT22;18963;51.504;5.316;2022-12-18T12:44:00;-0.90;99.90
32522;DHT22;18963;51.504;5.316;2022-12-18T12:46:27;-0.80;99.90
32522;DHT22;18963;51.504;5.316;2022-12-18T12:48:54;-0.70;99.90
32522;DHT22;18963;51.504;5.316;2022-12-18T12:51:21;-0.70;99.90
32522;DHT22;18963;51.504;5.316;2022-12-18T12:53:48;-0.70;99.90
32522;DHT22;18963;51.504;5.316;2022-12-18T12:56:17;-0.70;99.90
32522;DHT22;18963;51.504;5.316;2022-12-18T13:03:58;-0.70;99.90
32522;DHT22;18963;51.504;5.316;2022-12-18T13:06:29;-0.70;99.90
32522;DHT22;18963;51.504;5.316;2022-12-18T13:08:59;-0.70;99.90
32522;DHT22;18963;51.504;5.316;2022-12-18T13:11:32;-0.70;99.90
32522;DHT22;18963;51.504;5.316;2022-12-18T13:14:22;-0.70;99.90
32522;DHT22;18963;51.504;5.316;2022-12-18T13:16:48;-0.70;99.90
32522;DHT22;18963;51.504;5.316;2022-12-18T13:19:23;-0.60;99.90
32522;DHT22;18963;51.504;5.316;2022-12-18T13:21:56;-0.60;99.90
32522;DHT22;18963;51.504;5.316;2022-12-18T13:24:26;-0.60;99.90
32522;DHT22;18963;51.504;5.316;2022-12-18T13:26:52;-0.60;99.90
32522;DHT22;18963;51.504;5.316;2022-12-18T13:32:02;-0.70;99.90
32522;DHT22;18963;51.504;5.316;2022-12-18T13:34:28;-0.60;99.90
32522;DHT22;18963;51.504;5.316;2022-12-18T13:37:35;-0.60;99.90
32522;DHT22;18963;51.504;5.316;2022-12-18T13:39:53;-0.60;99.90
32522;DHT22;18963;51.504;5.316;2022-12-18T13:45:15;-0.60;99.90
32522;DHT22;18963;51.504;5.316;2022-12-18T13:47:48;-0.70;99.90
32522;DHT22;18963;51.504;5.316;2022-12-18T13:50:22;-0.70;99.90
32522;DHT22;18963;51.504;5.316;2022-12-18T13:52:48;-0.60;99.90
32522;DHT22;18963;51.504;5.316;2022-12-18T13:55:17;-0.60;99.90
32522;DHT22;18963;51.504;5.316;2022-12-18T13:57:43;-0.60;99.90
32522;DHT22;18963;51.504;5.316;2022-12-18T14:02:44;-0.60;99.90
32522;DHT22;18963;51.504;5.316;2022-12-18T14:05:21;-0.60;99.90
32522;DHT22;18963;51.504;5.316;2022-12-18T14:07:46;-0.60;99.90
32522;DHT22;18963;51.504;5.316;2022-12-18T14:10:12;-0.50;99.90
32522;DHT22;18963;51.504;5.316;2022-12-18T14:12:38;-0.50;99.90
32522;DHT22;18963;51.504;5.316;2022-12-18T14:17:56;-0.50;99.90
32522;DHT22;18963;51.504;5.316;2022-12-18T14:20:22;-0.50;99.90
32522;DHT22;18963;51.504;5.316;2022-12-18T14:22:49;-0.50;99.90
32522;DHT22;18963;51.504;5.316;2022-12-18T14:25:19;-0.50;99.90
32522;DHT22;18963;51.504;5.316;2022-12-18T14:27:50;-0.50;99.90
32522;DHT22;18963;51.504;5.316;2022-12-18T14:30:25;-0.50;99.90
32522;DHT22;18963;51.504;5.316;2022-12-18T14:33:05;-0.50;99.90
32522;DHT22;18963;51.504;5.316;2022-12-18T14:35:35;-0.50;99.90
32522;DHT22;18963;51.504;5.316;2022-12-18T14:38:19;-0.50;99.90
32522;DHT22;18963;51.504;5.316;2022-12-18T14:40:46;-0.50;99.90
32522;DHT22;18963;51.504;5.316;2022-12-18T14:43:11;-0.50;99.90
32522;DHT22;18963;51.504;5.316;2022-12-18T14:45:38;-0.50;99.90
32522;DHT22;18963;51.504;5.316;2022-12-18T14:48:16;-0.50;99.90
32522;DHT22;18963;51.504;5.316;2022-12-18T14:50:42;-0.50;99.90
32522;DHT22;18963;51.504;5.316;2022-12-18T14:53:22;-0.50;99.90
32522;DHT22;18963;51.504;5.316;2022-12-18T14:55:48;-0.50;99.90
32522;DHT22;18963;51.504;5.316;2022-12-18T14:58:15;-0.60;99.90
32522;DHT22;18963;51.504;5.316;2022-12-18T15:00:41;-0.50;99.90
32522;DHT22;18963;51.504;5.316;2022-12-18T15:03:07;-0.60;99.90
32522;DHT22;18963;51.504;5.316;2022-12-18T15:05:33;-0.60;99.90
32522;DHT22;18963;51.504;5.316;2022-12-18T15:08:00;-0.50;99.90
32522;DHT22;18963;51.504;5.316;2022-12-18T15:10:26;-0.50;99.90
32522;DHT22;18963;51.504;5.316;2022-12-18T15:18:09;-0.60;99.90
32522;DHT22;18963;51.504;5.316;2022-12-18T15:26:00;-0.50;99.90
32522;DHT22;18963;51.504;5.316;2022-12-18T15:28:27;-0.50;99.90
32522;DHT22;18963;51.504;5.316;2022-12-18T15:33:37;-0.50;99.90
32522;DHT22;18963;51.504;5.316;2022-12-18T15:36:03;-0.50;99.90
32522;DHT22;18963;51.504;5.316;2022-12-18T15:38:29;-0.50;99.90
32522;DHT22;18963;51.504;5.316;2022-12-18T15:40:55;-0.40;99.90
32522;DHT22;18963;51.504;5.316;2022-12-18T15:43:21;-0.40;99.90
32522;DHT22;18963;51.504;5.316;2022-12-18T15:46:00;-0.40;99.90
32522;DHT22;18963;51.504;5.316;2022-12-18T15:48:26;-0.50;99.90
32522;DHT22;18963;51.504;5.316;2022-12-18T15:50:52;-0.50;99.90
32522;DHT22;18963;51.504;5.316;2022-12-18T15:53:18;-0.50;99.90
32522;DHT22;18963;51.504;5.316;2022-12-18T15:55:43;-0.50;99.90
32522;DHT22;18963;51.504;5.316;2022-12-18T15:58:28;-0.50;99.90
32522;DHT22;18963;51.504;5.316;2022-12-18T16:00:53;-0.50;99.90
32522;DHT22;18963;51.504;5.316;2022-12-18T16:03:19;-0.50;99.90
32522;DHT22;18963;51.504;5.316;2022-12-18T16:05:45;-0.40;99.90
32522;DHT22;18963;51.504;5.316;2022-12-18T16:08:10;-0.40;99.90
32522;DHT22;18963;51.504;5.316;2022-12-18T16:10:36;-0.50;99.90
32522;DHT22;18963;51.504;5.316;2022-12-18T16:13:01;-0.40;99.90
32522;DHT22;18963;51.504;5.316;2022-12-18T16:15:27;-0.40;99.90
32522;DHT22;18963;51.504;5.316;2022-12-18T16:17:52;-0.40;99.90
32522;DHT22;18963;51.504;5.316;2022-12-18T16:20:19;-0.40;99.90
32522;DHT22;18963;51.504;5.316;2022-12-18T16:22:46;-0.40;99.90
32522;DHT22;18963;51.504;5.316;2022-12-18T16:25:16;-0.40;99.90
32522;DHT22;18963;51.504;5.316;2022-12-18T16:27:42;-0.40;99.90
32522;DHT22;18963;51.504;5.316;2022-12-18T16:30:11;-0.30;99.90
32522;DHT22;18963;51.504;5.316;2022-12-18T16:32:37;-0.30;99.90
32522;DHT22;18963;51.504;5.316;2022-12-18T16:35:02;-0.30;99.90
32522;DHT22;18963;51.504;5.316;2022-12-18T16:37:28;-0.30;99.90
32522;DHT22;18963;51.504;5.316;2022-12-18T16:39:53;-0.30;99.90
32522;DHT22;18963;51.504;5.316;2022-12-18T16:42:19;-0.30;99.90
32522;DHT22;18963;51.504;5.316;2022-12-18T16:44:46;-0.20;99.90
32522;DHT22;18963;51.504;5.316;2022-12-18T16:47:12;-0.20;99.90
32522;DHT22;18963;51.504;5.316;2022-12-18T16:49:37;-0.20;99.90
32522;DHT22;18963;51.504;5.316;2022-12-18T16:52:03;-0.20;99.90
32522;DHT22;18963;51.504;5.316;2022-12-18T16:54:29;-0.20;99.90
32522;DHT22;18963;51.504;5.316;2022-12-18T16:56:55;-0.10;99.90
32522;DHT22;18963;51.504;5.316;2022-12-18T16:59:20;-0.20;99.90
32522;DHT22;18963;51.504;5.316;2022-12-18T17:01:46;-0.20;99.90
32522;DHT22;18963;51.504;5.316;2022-12-18T17:04:11;-0.20;99.90
32522;DHT22;18963;51.504;5.316;2022-12-18T17:06:41;-0.20;99.90
32522;DHT22;18963;51.504;5.316;2022-12-18T17:09:09;-0.20;99.90
32522;DHT22;18963;51.504;5.316;2022-12-18T17:11:35;-0.10;99.90